Airfield :
LOGIN :

Register | Disclaimer

   EN    FR    IT 

 










Legend :    VFR   Marginal VFR   IFR   Intensive IFR   Very Intensive IFR
Visi :
Ceiling :
>= 8 km
>= 3000ft
5 to 8 km
1000 to 3000 ft
1500m to 5 km
500 to 1000 ft
800 to 1500m
200 to 500 ft
< 800m
< 200 ft
Symbols :   Thunderstorms  Fog  Heavy snow  Heavy precipitations  Wind > 20 kt
SIGMETs :     Misc.  Thunderstorms  Icing  Turbulence  Mountain Waves  Volcanic Ashes






- Airport Elevation : 17 ft
- IATA code : CPH


EKCH - København - Kastrup (Copenhagen)

CURRENT METAR :
  • 231850Z AUTO 36009KT 9999 NCD 20/15 Q1016 NOSIG

EXPIRED METARs :
  • 231820Z AUTO 36008KT 9999 NCD 20/16 Q1016 NOSIG
  • 231750Z AUTO 36008KT 9999 NCD 21/16 Q1016 NOSIG
  • 231720Z AUTO 01008KT 9999 NCD 21/16 Q1016 NOSIG
  • 231650Z AUTO 02009KT 9999 NCD 21/16 Q1016 NOSIG
  • 231620Z AUTO 01008KT 9999 NCD 21/16 Q1016 NOSIG

TAF TAF EKCH
Valid from the 23 at 18:00 until the 24 at 18:00 UTC


231704Z 2318/2418 01010KT 9999 SCT030
BECMG 2409/2412 18010KT
BECMG 2416/2418 12012KT



MET'MAP, your aeronautical weather chart ! - Copyright ORBIFLY December 2007 - Disclaimer

ORBIFLY MET'MAP TEAM :

Programming & Development : Alexandra Zaïnal
Concept & original design : Baudouin d'Aumeries
Assistance for programming : Marc-Olivier Méhu
Technical & hardware support : Manuel Goepfert

Contact : metmap@orbifly.com




SOURCES & CREDITS :

   NOAA